Time;durP1;ratioP1;P1;durP2;ratioP2;P2;SDS_P1;SDS_P2;PMS_P1;PMS_P2;Temp;Humidity;BMP_temperature;BMP_pressure;BME280_temperature;BME280_humidity;BME280_pressure;Samples;Min_cycle;Max_cycle;Signal;HPM_P1;HPM_P2
2023/04/28 00:01:27;;;;;;;37.72;13.45;;;;;;;8.39;100.00;100423.66;5126170;27;20062;-83
2023/04/28 00:03:55;;;;;;;25.85;11.55;;;;;;;8.37;100.00;100400.22;5118202;27;20054;-83
2023/04/28 00:06:22;;;;;;;24.52;8.95;;;;;;;8.26;100.00;100387.53;5133521;27;20049;-83
2023/04/28 00:08:49;;;;;;;26.23;10.30;;;;;;;8.29;100.00;100389.22;5131321;27;20047;-82
2023/04/28 00:11:16;;;;;;;26.10;9.93;;;;;;;8.47;100.00;100408.63;5126254;27;20108;-83
2023/04/28 00:13:42;;;;;;;23.75;9.13;;;;;;;8.33;100.00;100393.41;5131638;27;20104;-83
2023/04/28 00:16:09;;;;;;;21.65;9.13;;;;;;;8.28;100.00;100388.34;5134114;27;20047;-83
2023/04/28 00:18:36;;;;;;;25.10;11.60;;;;;;;8.20;100.00;100346.03;5126121;27;20092;-83
2023/04/28 00:21:03;;;;;;;30.48;10.05;;;;;;;8.46;100.00;100397.31;5132482;27;20130;-83
2023/04/28 00:23:30;;;;;;;37.88;10.60;;;;;;;8.50;100.00;100406.78;5132654;27;20051;-83
2023/04/28 00:25:56;;;;;;;30.55;12.55;;;;;;;8.33;100.00;100372.53;5133431;27;20059;-83
2023/04/28 00:28:23;;;;;;;25.25;9.73;;;;;;;8.48;100.00;100400.75;5126827;27;20047;-83
2023/04/28 00:30:53;;;;;;;33.67;10.05;;;;;;;8.51;100.00;100381.53;5131561;27;20487;-82
2023/04/28 00:33:19;;;;;;;29.88;10.45;;;;;;;8.14;100.00;100347.09;5137537;27;20052;-82
2023/04/28 00:35:46;;;;;;;27.65;9.13;;;;;;;8.22;100.00;100352.03;5132462;28;20043;-84
2023/04/28 00:38:13;;;;;;;24.55;8.15;;;;;;;8.48;100.00;100379.88;5132198;27;20055;-82
2023/04/28 00:40:39;;;;;;;25.80;8.73;;;;;;;8.39;100.00;100348.84;5135620;27;20047;-83
2023/04/28 00:43:06;;;;;;;27.55;8.77;;;;;;;8.36;100.00;100354.19;5128609;27;20047;-82
2023/04/28 00:45:33;;;;;;;24.35;8.70;;;;;;;8.50;100.00;100366.78;5128993;27;20074;-83
2023/04/28 00:48:01;;;;;;;33.65;9.05;;;;;;;8.57;100.00;100394.38;5135657;27;20070;-83
2023/04/28 00:50:28;;;;;;;30.00;10.60;;;;;;;8.09;100.00;100324.66;5136288;27;20047;-83
2023/04/28 00:52:55;;;;;;;31.73;10.50;;;;;;;8.34;100.00;100358.59;5136333;27;20050;-83
2023/04/28 00:55:23;;;;;;;20.55;8.95;;;;;;;8.45;100.00;100373.91;5136313;27;20047;-82
2023/04/28 00:57:50;;;;;;;33.80;11.38;;;;;;;8.48;100.00;100392.06;5135183;27;20047;-83
2023/04/28 01:00:17;;;;;;;23.98;7.82;;;;;;;8.42;100.00;100353.13;5135749;27;20050;-82
2023/04/28 01:02:43;;;;;;;25.90;8.35;;;;;;;8.60;100.00;100375.97;5135626;27;20046;-82
2023/04/28 01:05:12;;;;;;;23.95;9.52;;;;;;;8.18;100.00;100333.03;5135739;27;20168;-82
2023/04/28 01:07:39;;;;;;;35.17;10.70;;;;;;;8.04;100.00;100308.31;5122251;27;20495;-82
2023/04/28 01:10:06;;;;;;;20.05;8.77;;;;;;;8.15;100.00;100327.06;5135773;27;20047;-82
2023/04/28 01:12:33;;;;;;;27.63;9.27;;;;;;;8.20;100.00;100322.56;5135030;27;20043;-82
2023/04/28 01:15:00;;;;;;;23.25;10.02;;;;;;;8.46;100.00;100349.53;5135485;27;20096;-83
2023/04/28 01:17:27;;;;;;;23.48;7.65;;;;;;;8.41;100.00;100336.63;5134897;27;20050;-82
2023/04/28 01:19:54;;;;;;;21.42;7.68;;;;;;;8.74;100.00;100389.38;5134935;27;20124;-82
2023/04/28 01:22:21;;;;;;;27.15;9.00;;;;;;;8.43;100.00;100340.06;5134795;27;20065;-82
2023/04/28 01:24:48;;;;;;;18.08;6.78;;;;;;;8.48;100.00;100348.56;5136822;27;20089;-82
2023/04/28 01:27:15;;;;;;;19.23;7.90;;;;;;;8.53;100.00;100357.09;5135130;27;20043;-83
2023/04/28 01:29:42;;;;;;;17.00;7.38;;;;;;;8.49;100.00;100362.47;5136260;27;20047;-82
2023/04/28 01:32:08;;;;;;;20.85;7.15;;;;;;;8.52;100.00;100351.94;5135721;27;20074;-83
2023/04/28 01:34:35;;;;;;;15.73;6.68;;;;;;;8.44;100.00;100346.13;5134921;27;20047;-82
2023/04/28 01:37:02;;;;;;;16.02;7.03;;;;;;;8.43;100.00;100344.41;5136582;27;20051;-83
2023/04/28 01:39:29;;;;;;;17.83;6.75;;;;;;;8.58;100.00;100346.47;5136389;27;20100;-83
2023/04/28 01:41:55;;;;;;;18.92;7.82;;;;;;;7.87;100.00;100257.63;5131956;27;20055;-83
2023/04/28 01:44:22;;;;;;;25.92;7.75;;;;;;;8.50;100.00;100353.75;5136431;27;20047;-83
2023/04/28 01:46:49;;;;;;;19.92;7.40;;;;;;;8.59;100.00;100366.47;5136865;27;20047;-83
2023/04/28 01:49:15;;;;;;;20.73;9.15;;;;;;;8.32;100.00;100318.66;5135529;27;20047;-83
2023/04/28 01:51:42;;;;;;;16.13;6.55;;;;;;;8.56;100.00;100356.13;5135183;27;20035;-83
2023/04/28 01:54:09;;;;;;;21.15;6.38;;;;;;;8.61;100.00;100349.00;5123008;27;20047;-83
2023/04/28 01:56:36;;;;;;;15.70;5.45;;;;;;;8.38;100.00;100309.78;5134258;27;20047;-83
2023/04/28 01:59:03;;;;;;;16.30;6.80;;;;;;;8.50;100.00;100345.91;5123310;27;20047;-83
2023/04/28 02:01:30;;;;;;;23.02;7.18;;;;;;;8.46;100.00;100331.25;5133434;27;20112;-83
2023/04/28 02:03:56;;;;;;;21.80;8.35;;;;;;;8.32;100.00;100326.47;5129575;27;20050;-83
2023/04/28 02:06:23;;;;;;;18.85;7.25;;;;;;;8.18;100.00;100311.34;5135393;27;20428;-84
2023/04/28 02:08:50;;;;;;;23.40;8.40;;;;;;;8.47;100.00;100348.63;5135094;27;20054;-83
2023/04/28 02:11:17;;;;;;;18.92;8.07;;;;;;;8.27;100.00;100312.75;5135917;27;20096;-83
2023/04/28 02:13:44;;;;;;;28.35;9.27;;;;;;;8.55;100.00;100363.09;5133537;27;20047;-83
2023/04/28 02:16:10;;;;;;;25.38;9.40;;;;;;;8.24;100.00;100308.50;5134992;27;20440;-83
2023/04/28 02:18:37;;;;;;;20.35;7.85;;;;;;;8.41;100.00;100326.19;5133986;27;20096;-83
2023/04/28 02:21:11;;;;;;;23.65;8.15;;;;;;;8.56;100.00;100356.13;5133987;27;20504;-83
2023/04/28 02:23:39;;;;;;;25.13;7.43;;;;;;;8.65;100.00;100368.00;5131423;27;20047;-83
2023/04/28 02:26:05;;;;;;;28.55;9.52;;;;;;;8.43;100.00;100336.56;5133576;27;20055;-84
2023/04/28 02:28:32;;;;;;;27.92;9.52;;;;;;;8.22;100.00;100319.91;5133427;27;20058;-83
2023/04/28 02:31:06;;;;;;;20.50;6.88;;;;;;;8.55;100.00;100336.13;5133653;27;20465;-83
2023/04/28 02:33:34;;;;;;;19.20;8.40;;;;;;;8.62;100.00;100345.44;5130703;27;20065;-83
2023/04/28 02:36:02;;;;;;;22.42;9.23;;;;;;;8.35;100.00;100311.56;5134609;27;20047;-83
2023/04/28 02:38:29;;;;;;;25.13;9.55;;;;;;;8.41;100.00;100320.97;5134270;27;20043;-83
2023/04/28 02:41:00;;;;;;;19.55;8.48;;;;;;;8.46;100.00;100321.66;5134937;27;20054;-83
2023/04/28 02:43:27;;;;;;;37.25;13.52;;;;;;;8.23;100.00;100319.81;5134119;27;20058;-83
2023/04/28 02:45:54;;;;;;;25.35;9.73;;;;;;;8.11;100.00;100288.94;5135793;27;20047;-83
2023/04/28 02:48:21;;;;;;;30.27;10.20;;;;;;;8.50;100.00;100340.69;5134473;27;20043;-83
2023/04/28 02:50:48;;;;;;;23.40;8.63;;;;;;;8.80;100.00;100362.25;5135097;27;20100;-84
2023/04/28 02:53:15;;;;;;;20.17;8.60;;;;;;;8.49;100.00;100321.56;5134459;27;20068;-84
2023/04/28 02:55:42;;;;;;;20.98;9.32;;;;;;;8.42;100.00;100319.19;5133679;27;20503;-83
2023/04/28 02:58:09;;;;;;;24.25;10.23;;;;;;;8.52;100.00;100318.84;5135225;27;20438;-83
2023/04/28 03:00:35;;;;;;;24.30;10.50;;;;;;;8.77;100.00;100348.44;5134660;27;20065;-83
2023/04/28 03:03:02;;;;;;;17.63;6.82;;;;;;;8.79;100.00;100347.47;5129510;27;21646;-83
2023/04/28 03:05:29;;;;;;;20.85;8.52;;;;;;;8.69;100.00;100333.03;5133637;27;20195;-83
2023/04/28 03:07:56;;;;;;;21.33;8.02;;;;;;;8.61;100.00;100320.28;5134270;27;20047;-83
2023/04/28 03:10:23;;;;;;;22.42;10.52;;;;;;;8.85;100.00;100356.81;5134449;27;20057;-83
2023/04/28 03:12:50;;;;;;;26.42;8.82;;;;;;;8.64;100.00;100346.28;5131122;27;20050;-83
2023/04/28 03:15:17;;;;;;;16.13;6.88;;;;;;;8.68;100.00;100313.94;5134988;27;20093;-83
2023/04/28 03:17:43;;;;;;;19.67;8.85;;;;;;;8.79;100.00;100363.13;5133355;27;20476;-83
2023/04/28 03:20:11;;;;;;;23.63;9.45;;;;;;;8.55;100.00;100317.88;5133386;27;20051;-83
2023/04/28 03:22:38;;;;;;;20.73;9.38;;;;;;;8.82;100.00;100354.31;5132451;27;20047;-83
2023/04/28 03:25:05;;;;;;;22.48;9.27;;;;;;;8.77;100.00;100332.78;5130350;27;20408;-84
2023/04/28 03:27:32;;;;;;;17.80;8.60;;;;;;;8.42;100.00;100299.19;5133894;27;20047;-83
2023/04/28 03:29:59;;;;;;;21.15;9.20;;;;;;;8.55;100.00;100305.69;5124220;27;20055;-84
2023/04/28 03:32:25;;;;;;;18.88;7.40;;;;;;;8.90;100.00;100340.09;5126430;27;20047;-83
2023/04/28 03:34:52;;;;;;;14.10;6.55;;;;;;;8.93;100.00;100336.53;5134066;27;20051;-83
2023/04/28 03:37:19;;;;;;;17.50;6.78;;;;;;;8.82;100.00;100321.25;5133011;27;20480;-83
2023/04/28 03:39:45;;;;;;;17.23;7.93;;;;;;;8.87;100.00;100327.16;5132755;27;20043;-83
2023/04/28 03:42:12;;;;;;;18.00;8.52;;;;;;;8.86;100.00;100322.00;5128870;27;20043;-83
2023/04/28 03:44:39;;;;;;;23.25;8.10;;;;;;;8.70;100.00;100287.78;5133261;27;20050;-83
2023/04/28 03:47:06;;;;;;;22.40;9.30;;;;;;;8.80;100.00;100322.19;5134243;27;20046;-83
2023/04/28 03:49:32;;;;;;;19.33;8.38;;;;;;;8.62;100.00;100290.66;5132598;27;20047;-83
2023/04/28 03:51:59;;;;;;;19.08;8.43;;;;;;;8.61;100.00;100290.72;5130980;27;20047;-83
2023/04/28 03:54:26;;;;;;;16.67;6.28;;;;;;;8.87;100.00;100321.94;5128585;27;20123;-83
2023/04/28 03:56:52;;;;;;;27.92;9.18;;;;;;;8.96;100.00;100340.75;5116071;27;20047;-83
2023/04/28 03:59:19;;;;;;;16.75;7.38;;;;;;;8.67;100.00;100283.50;5122993;27;20046;-83
2023/04/28 04:01:46;;;;;;;22.75;9.18;;;;;;;8.97;100.00;100342.47;5128946;27;20043;-83
2023/04/28 04:04:13;;;;;;;19.63;9.23;;;;;;;8.73;100.00;100300.72;5119166;27;20048;-83
2023/04/28 04:06:40;;;;;;;27.73;11.35;;;;;;;8.71;100.00;100312.94;5133772;27;20594;-83
2023/04/28 04:09:07;;;;;;;22.48;9.07;;;;;;;8.60;100.00;100275.97;5131902;27;20121;-83
2023/04/28 04:11:34;;;;;;;23.50;12.98;;;;;;;8.57;100.00;100290.00;5129776;27;20046;-83
2023/04/28 04:14:01;;;;;;;22.48;9.45;;;;;;;8.63;100.00;100291.53;5130749;27;20501;-83
2023/04/28 04:16:28;;;;;;;28.10;9.75;;;;;;;8.56;100.00;100285.66;5126986;27;20054;-82
2023/04/28 04:18:55;;;;;;;23.00;11.07;;;;;;;8.73;100.00;100304.16;5121747;27;20051;-82
2023/04/28 04:21:21;;;;;;;24.00;10.05;;;;;;;8.78;100.00;100308.38;5128401;27;20508;-82
2023/04/28 04:23:48;;;;;;;24.40;10.98;;;;;;;8.62;100.00;100288.03;5131685;27;20453;-82
2023/04/28 04:26:15;;;;;;;21.70;9.27;;;;;;;8.70;100.00;100290.38;5128413;27;20066;-81
2023/04/28 04:28:41;;;;;;;26.88;12.15;;;;;;;8.79;100.00;100316.13;5132661;27;20447;-82
2023/04/28 04:31:08;;;;;;;27.60;11.48;;;;;;;8.83;100.00;100327.31;5131995;27;20039;-82
2023/04/28 04:33:36;;;;;;;23.30;7.68;;;;;;;8.84;100.00;100316.81;5131166;28;20441;-82
2023/04/28 04:36:03;;;;;;;28.85;11.70;;;;;;;8.44;100.00;100275.66;5133059;27;20399;-82
2023/04/28 04:38:30;;;;;;;31.25;12.48;;;;;;;8.83;100.00;100333.38;5133025;27;20039;-82
2023/04/28 04:40:57;;;;;;;27.95;11.15;;;;;;;8.64;100.00;100294.06;5131967;28;20043;-83
2023/04/28 04:43:24;;;;;;;25.17;10.32;;;;;;;8.54;100.00;100279.66;5131411;27;20080;-83
2023/04/28 04:45:50;;;;;;;30.85;12.55;;;;;;;8.66;100.00;100309.69;5131931;28;20051;-83
2023/04/28 04:48:17;;;;;;;30.15;11.23;;;;;;;8.53;100.00;100272.72;5121916;28;20048;-83
2023/04/28 04:50:44;;;;;;;24.15;9.52;;;;;;;8.82;100.00;100320.38;5123354;28;20664;-83
2023/04/28 04:53:11;;;;;;;30.60;13.05;;;;;;;8.50;100.00;100272.84;5118685;28;20043;-83
2023/04/28 04:55:42;;;;;;;31.98;12.77;;;;;;;8.60;100.00;100296.84;5121425;28;20576;-82
2023/04/28 04:58:08;;;;;;;41.55;13.57;;;;;;;8.71;100.00;100305.13;5122008;28;20058;-84
2023/04/28 05:00:38;;;;;;;35.67;13.80;;;;;;;8.56;100.00;100275.22;5126555;28;20043;-82
2023/04/28 05:03:08;;;;;;;27.08;13.30;;;;;;;8.78;100.00;100311.81;5117260;27;20781;-85
2023/04/28 05:05:35;;;;;;;25.02;10.73;;;;;;;8.81;100.00;100308.25;5128593;27;20051;-83
2023/04/28 05:08:02;;;;;;;33.08;11.50;;;;;;;8.79;100.00;100321.38;5120159;28;20054;-83
2023/04/28 05:10:29;;;;;;;30.42;13.13;;;;;;;8.77;100.00;100310.13;5123333;28;20047;-83
2023/04/28 05:12:55;;;;;;;25.67;11.85;;;;;;;8.63;100.00;100289.75;5116705;28;20412;-83
2023/04/28 05:15:22;;;;;;;48.08;17.65;;;;;;;8.75;100.00;100317.16;5118575;28;20056;-83
2023/04/28 05:17:49;;;;;;;31.33;15.10;;;;;;;8.60;100.00;100296.84;5124270;28;20046;-83
2023/04/28 05:20:16;;;;;;;32.78;12.43;;;;;;;8.93;100.00;100341.75;5126400;28;20120;-83
2023/04/28 05:22:42;;;;;;;39.38;15.32;;;;;;;8.53;100.00;100281.44;5120049;28;20144;-83
2023/04/28 05:25:09;;;;;;;25.55;11.43;;;;;;;8.76;100.00;100310.19;5121451;27;20055;-83
2023/04/28 05:27:38;;;;;;;39.15;15.00;;;;;;;8.62;100.00;100292.41;5129048;27;20100;-83
2023/04/28 05:30:07;;;;;;;31.48;12.88;;;;;;;8.83;100.00;100322.94;5124607;27;20054;-82
2023/04/28 05:32:34;;;;;;;33.35;15.18;;;;;;;8.97;100.00;100345.09;5127104;27;20514;-83
2023/04/28 05:35:02;;;;;;;28.83;12.00;;;;;;;8.99;100.00;100341.50;5127518;27;20031;-82
2023/04/28 05:37:28;;;;;;;25.63;13.45;;;;;;;8.59;100.00;100284.69;5124376;27;20043;-82
2023/04/28 05:39:55;;;;;;;24.52;11.18;;;;;;;8.96;100.00;100319.88;5125063;27;20055;-82
2023/04/28 05:42:22;;;;;;;28.42;13.05;;;;;;;8.98;100.00;100325.88;5122705;27;20044;-82
2023/04/28 05:44:48;;;;;;;26.92;13.20;;;;;;;8.93;100.00;100329.53;5131453;27;20393;-83
2023/04/28 05:47:15;;;;;;;27.83;13.13;;;;;;;8.92;100.00;100314.78;5121390;27;20476;-80
2023/04/28 05:49:42;;;;;;;24.27;9.63;;;;;;;8.93;100.00;100313.03;5127933;27;20051;-80
2023/04/28 05:52:08;;;;;;;33.22;13.38;;;;;;;9.10;100.00;100352.41;5126012;27;20690;-80
2023/04/28 05:54:35;;;;;;;35.40;14.63;;;;;;;8.90;100.00;100313.97;5125869;27;20047;-81
2023/04/28 05:57:02;;;;;;;26.83;12.80;;;;;;;8.55;100.00;100258.72;5132482;27;20043;-80
2023/04/28 05:59:30;;;;;;;37.00;14.65;;;;;;;8.93;100.00;100299.97;5127338;27;20043;-81
2023/04/28 06:01:57;;;;;;;27.58;13.52;;;;;;;9.21;100.00;100357.22;5126710;27;20126;-81
2023/04/28 06:04:24;;;;;;;40.40;14.52;;;;;;;9.09;100.00;100332.41;5125331;27;20052;-81
2023/04/28 06:06:52;;;;;;;37.13;15.30;;;;;;;9.12;100.00;100334.09;5126589;27;20071;-81
2023/04/28 06:09:19;;;;;;;28.10;12.55;;;;;;;9.03;100.00;100313.50;5124564;27;20054;-81
2023/04/28 06:11:46;;;;;;;28.70;13.07;;;;;;;9.07;100.00;100326.41;5122856;27;20048;-82
2023/04/28 06:14:12;;;;;;;36.72;16.30;;;;;;;8.92;100.00;100308.69;5127864;27;20047;-81
2023/04/28 06:16:39;;;;;;;30.60;13.77;;;;;;;9.03;100.00;100313.50;5124442;27;20078;-81
2023/04/28 06:19:06;;;;;;;27.48;14.05;;;;;;;9.24;100.00;100335.34;5131736;27;20050;-80
2023/04/28 06:21:33;;;;;;;22.73;11.45;;;;;;;9.28;100.00;100334.34;5132482;27;20767;-83
2023/04/28 06:24:00;;;;;;;40.17;14.35;;;;;;;9.02;100.00;100296.16;5130024;27;20051;-84
2023/04/28 06:26:28;;;;;;;34.00;14.60;;;;;;;9.50;100.00;100358.72;5126799;27;20053;-83
2023/04/28 06:28:55;;;;;;;23.98;11.38;;;;;;;9.38;100.00;100319.16;5125493;27;20604;-82
2023/04/28 06:31:22;;;;;;;32.58;14.82;;;;;;;9.27;100.00;100316.97;5133522;27;20047;-82
2023/04/28 06:33:48;;;;;;;32.53;15.00;;;;;;;9.46;100.00;100351.06;5126989;27;20047;-81
2023/04/28 06:36:16;;;;;;;40.53;17.10;;;;;;;9.36;100.00;100321.81;5132854;27;20058;-82
2023/04/28 06:38:44;;;;;;;42.70;16.98;;;;;;;9.54;100.00;100363.81;5131787;27;20057;-81
2023/04/28 06:41:10;;;;;;;22.25;11.48;;;;;;;9.49;100.00;100340.47;5119898;27;20404;-81
2023/04/28 06:43:37;;;;;;;25.00;10.55;;;;;;;9.71;100.00;100350.94;5123234;27;20093;-81
2023/04/28 06:46:04;;;;;;;37.92;16.27;;;;;;;9.58;100.00;100323.56;5127354;27;20035;-81
2023/04/28 06:48:31;;;;;;;31.92;12.55;;;;;;;9.64;100.00;100352.09;5115552;27;20048;-80
2023/04/28 06:50:58;;;;;;;36.15;16.30;;;;;;;9.22;100.00;100305.81;5130627;27;20047;-81
2023/04/28 06:53:24;;;;;;;29.35;15.68;;;;;;;9.50;100.00;100319.50;5131970;27;20047;-81
2023/04/28 06:55:51;;;;;;;29.15;13.77;;;;;;;9.88;100.00;100368.56;5134584;27;20051;-81
2023/04/28 06:58:19;;;;;;;35.25;14.55;;;;;;;9.85;100.00;100368.69;5129915;27;20054;-81
2023/04/28 07:00:46;;;;;;;26.35;12.95;;;;;;;9.84;100.00;100365.22;5128649;27;20065;-80
2023/04/28 07:03:13;;;;;;;25.48;12.02;;;;;;;9.87;100.00;100359.00;5133204;27;20070;-81
2023/04/28 07:05:40;;;;;;;32.70;14.48;;;;;;;9.85;100.00;100372.16;5133518;27;20051;-81
2023/04/28 07:08:07;;;;;;;29.63;14.95;;;;;;;9.82;100.00;100359.19;5135334;27;20054;-80
2023/04/28 07:10:33;;;;;;;32.38;13.90;;;;;;;9.76;100.00;100354.22;5133792;27;20047;-80
2023/04/28 07:13:01;;;;;;;35.70;16.30;;;;;;;9.91;100.00;100362.34;5126855;27;20039;-81
2023/04/28 07:15:28;;;;;;;28.15;13.30;;;;;;;9.84;100.00;100367.84;5129589;27;20408;-80
2023/04/28 07:17:55;;;;;;;27.77;12.55;;;;;;;9.82;100.00;100351.34;5135172;27;20059;-80
2023/04/28 07:20:22;;;;;;;34.88;15.50;;;;;;;9.95;100.00;100375.25;5133675;27;20047;-81
2023/04/28 07:22:48;;;;;;;36.67;16.08;;;;;;;10.02;100.00;100384.56;5126847;27;20974;-80
2023/04/28 07:25:15;;;;;;;37.00;18.52;;;;;;;9.60;100.00;100327.84;5127529;27;20377;-81
2023/04/28 07:27:42;;;;;;;30.92;15.48;;;;;;;9.98;100.00;100369.03;5119561;27;20051;-80
2023/04/28 07:30:09;;;;;;;36.78;16.70;;;;;;;10.09;100.00;100366.81;5127932;27;20441;-80
2023/04/28 07:32:52;;;;;;;30.48;16.73;;;;;;;10.00;100.00;100333.19;5132758;27;20047;-80
2023/04/28 07:35:19;;;;;;;24.08;12.63;;;;;;;10.07;100.00;100352.94;5135302;27;20043;-80
2023/04/28 07:37:46;;;;;;;34.95;17.80;;;;;;;9.98;100.00;100361.19;5134558;27;20054;-81
2023/04/28 07:40:13;;;;;;;35.70;18.42;;;;;;;10.04;100.00;100384.50;5126757;27;20126;-81
2023/04/28 07:42:40;;;;;;;34.00;15.98;;;;;;;9.91;100.00;100337.03;5121860;27;20066;-81
2023/04/28 07:45:07;;;;;;;37.42;16.45;;;;;;;10.48;100.00;100407.97;5134458;27;20123;-81
2023/04/28 07:47:34;;;;;;;33.78;17.52;;;;;;;10.12;100.00;100348.38;5117304;27;20051;-81
2023/04/28 07:50:04;;;;;;;39.05;19.13;;;;;;;10.11;100.00;100356.28;5127913;27;20097;-83
2023/04/28 07:52:31;;;;;;;33.95;18.55;;;;;;;10.34;100.00;100389.38;5123926;27;20088;-83
2023/04/28 07:54:58;;;;;;;25.17;13.07;;;;;;;10.26;100.00;100359.13;5132757;27;20047;-83
2023/04/28 07:57:25;;;;;;;31.33;17.27;;;;;;;10.45;100.00;100380.16;5133939;27;20058;-83
2023/04/28 07:59:52;;;;;;;29.58;15.20;;;;;;;10.63;100.00;100391.59;5132461;27;20480;-83
2023/04/28 08:02:19;;;;;;;32.75;17.67;;;;;;;10.50;100.00;100376.47;5132729;27;20043;-83
2023/04/28 08:04:46;;;;;;;29.98;16.83;;;;;;;10.63;100.00;100373.28;5116546;27;20051;-83
2023/04/28 08:07:13;;;;;;;34.15;17.08;;;;;;;10.92;100.00;100401.72;5113544;27;20409;-82
2023/04/28 08:09:42;;;;;;;44.35;23.88;;;;;;;10.39;100.00;100353.41;5134026;27;20043;-82
2023/04/28 08:12:09;;;;;;;38.72;19.52;;;;;;;10.73;100.00;100412.16;5124238;27;20039;-84
2023/04/28 08:14:36;;;;;;;29.73;17.13;;;;;;;10.66;100.00;100387.16;5117743;27;20100;-84
2023/04/28 08:17:03;;;;;;;34.33;18.65;;;;;;;10.55;100.00;100369.28;5132264;27;20046;-83
2023/04/28 08:19:30;;;;;;;30.80;15.52;;;;;;;10.99;100.00;100406.59;5121284;27;20103;-84
2023/04/28 08:21:56;;;;;;;29.17;17.65;;;;;;;10.98;100.00;100377.88;5130235;27;20051;-84
2023/04/28 08:24:23;;;;;;;24.77;13.93;;;;;;;11.24;100.00;100400.25;5132782;27;20468;-84
2023/04/28 08:26:50;;;;;;;36.50;18.67;;;;;;;11.05;100.00;100391.53;5133425;27;20103;-84
2023/04/28 08:29:17;;;;;;;35.78;18.63;;;;;;;11.01;100.00;100406.53;5131338;27;20469;-84
2023/04/28 08:31:44;;;;;;;33.22;17.98;;;;;;;11.23;100.00;100393.34;5123999;27;20062;-84
2023/04/28 08:34:11;;;;;;;31.50;18.38;;;;;;;11.55;100.00;100430.31;5131581;27;20039;-83
2023/04/28 08:36:41;;;;;;;32.70;16.88;;;;;;;11.25;100.00;100360.03;5121641;27;20439;-83
2023/04/28 08:39:08;;;;;;;45.67;22.75;;;;;;;11.10;100.00;100373.84;5131415;28;20484;-84
2023/04/28 08:41:41;;;;;;;36.42;20.50;;;;;;;11.23;100.00;100388.09;5131081;28;20079;-84
2023/04/28 08:44:08;;;;;;;32.80;17.55;;;;;;;11.24;100.00;100391.56;5130545;27;20047;-83
2023/04/28 08:46:41;;;;;;;26.23;15.15;;;;;;;10.99;100.00;100345.50;5133230;27;20055;-84
2023/04/28 08:49:15;;;;;;;29.03;17.03;;;;;;;11.18;100.00;100362.09;5122084;28;20051;-84
2023/04/28 08:51:54;;;;;;;42.28;23.23;;;;;;;11.33;100.00;100414.72;5117456;28;20054;-83
2023/04/28 08:54:22;;;;;;;39.25;19.42;;;;;;;11.15;100.00;100393.66;5113373;28;20055;-84
2023/04/28 08:56:54;;;;;;;39.47;19.73;;;;;;;11.18;100.00;100388.28;5131323;28;20578;-83
2023/04/28 08:59:21;;;;;;;36.05;18.50;;;;;;;11.20;100.00;100347.16;5131967;27;20043;-83
2023/04/28 09:01:49;;;;;;;43.70;26.13;;;;;;;11.51;100.00;100426.13;5134842;27;20043;-84
2023/04/28 09:04:16;;;;;;;47.38;26.85;;;;;;;11.53;100.00;100434.78;5136434;27;20095;-84
2023/04/28 09:06:45;;;;;;;41.95;22.58;;;;;;;11.67;100.00;100421.88;5137668;27;20629;-84
2023/04/28 09:09:24;;;;;;;35.50;20.30;;;;;;;11.71;100.00;100414.72;5134011;27;20085;-84
2023/04/28 09:11:51;;;;;;;33.08;19.40;;;;;;;11.89;100.00;100432.19;5125393;27;20575;-84
2023/04/28 09:14:17;;;;;;;33.47;19.10;;;;;;;11.62;100.00;100388.94;5133591;27;20052;-84
2023/04/28 09:16:45;;;;;;;37.30;19.65;;;;;;;11.80;100.00;100416.06;5129688;27;20122;-84
2023/04/28 09:19:11;;;;;;;37.15;19.55;;;;;;;11.47;100.00;100380.84;5130643;27;20129;-83
2023/04/28 09:21:52;;;;;;;28.45;16.33;;;;;;;11.65;100.00;100438.59;5121327;27;20048;-84
2023/04/28 09:24:30;;;;;;;42.47;23.27;;;;;;;11.54;100.00;100433.84;5131162;27;20047;-84
2023/04/28 09:27:03;;;;;;;44.75;20.63;;;;;;;11.71;100.00;100430.47;5128346;27;20051;-84
2023/04/28 09:29:30;;;;;;;45.60;27.75;;;;;;;11.88;100.00;100438.38;5135590;27;20047;-83
2023/04/28 09:32:20;;;;;;;47.35;26.10;;;;;;;11.57;100.00;100405.72;5135458;27;20083;-83
2023/04/28 09:34:50;;;;;;;59.63;26.58;;;;;;;11.99;100.00;100440.53;5136395;27;20128;-83
2023/04/28 09:37:22;;;;;;;37.42;21.52;;;;;;;12.21;100.00;100447.34;5128396;27;20075;-83
2023/04/28 09:39:50;;;;;;;38.60;22.48;;;;;;;12.03;100.00;100405.31;5130125;27;20134;-84
2023/04/28 09:42:41;;;;;;;34.42;19.73;;;;;;;12.34;100.00;100446.66;5121184;27;20039;-83
2023/04/28 09:45:10;;;;;;;34.03;20.73;;;;;;;12.50;100.00;100436.25;5136802;27;20047;-83
2023/04/28 09:47:40;;;;;;;37.50;21.67;;;;;;;12.50;100.00;100423.13;5123308;27;20055;-83
2023/04/28 09:50:11;;;;;;;54.35;27.35;;;;;;;12.26;100.00;100433.06;5133251;27;20054;-84
2023/04/28 09:52:40;;;;;;;36.03;21.80;;;;;;;12.33;100.00;100417.88;5134273;27;20117;-84
2023/04/28 09:55:07;;;;;;;46.70;25.92;;;;;;;12.08;100.00;100418.22;5136247;27;20051;-84
2023/04/28 09:57:35;;;;;;;32.72;19.25;;;;;;;12.50;100.00;100461.63;5135221;27;20129;-83
2023/04/28 10:00:07;;;;;;;41.67;24.15;;;;;;;11.88;100.00;100400.78;5126902;27;20500;-84
2023/04/28 10:02:36;;;;;;;46.78;27.17;;;;;;;12.20;100.00;100454.38;5134024;27;20039;-84
2023/04/28 10:05:08;;;;;;;35.17;20.55;;;;;;;12.55;100.00;100475.38;5134386;27;20109;-83
2023/04/28 10:07:36;;;;;;;45.03;20.95;;;;;;;12.45;100.00;100429.53;5134839;27;20073;-84
2023/04/28 10:10:04;;;;;;;45.35;25.58;;;;;;;12.42;100.00;100427.06;5135151;27;20066;-84
2023/04/28 10:12:31;;;;;;;41.78;24.95;;;;;;;12.40;100.00;100437.63;5127218;27;20095;-83
2023/04/28 10:14:59;;;;;;;49.50;27.38;;;;;;;12.20;100.00;100428.13;5124552;27;20676;-84
2023/04/28 10:17:28;;;;;;;59.25;31.63;;;;;;;11.82;100.00;100412.44;5134331;27;20385;-84
2023/04/28 10:19:56;;;;;;;45.33;27.45;;;;;;;12.36;100.00;100467.59;5135560;27;20381;-84
2023/04/28 10:22:41;;;;;;;41.13;25.75;;;;;;;12.39;100.00;100471.84;5127085;27;20503;-84
2023/04/28 10:25:10;;;;;;;43.00;23.38;;;;;;;12.46;100.00;100473.22;5127544;27;20392;-84
2023/04/28 10:27:39;;;;;;;54.55;30.15;;;;;;;12.43;100.00;100452.38;5129535;27;20124;-85
2023/04/28 10:30:17;;;;;;;34.47;21.05;;;;;;;12.73;100.00;100471.84;5134683;27;20103;-85
2023/04/28 10:33:12;;;;;;;43.25;26.27;;;;;;;12.69;100.00;100485.22;5133307;27;20127;-85
2023/04/28 10:35:46;;;;;;;52.13;30.75;;;;;;;12.43;100.00;100450.63;5121442;27;20161;-84
2023/04/28 10:38:13;;;;;;;38.30;21.30;;;;;;;13.07;100.00;100485.88;5133948;27;20107;-84
2023/04/28 10:40:41;;;;;;;56.58;30.98;;;;;;;12.60;100.00;100485.69;5124677;27;20057;-84
2023/04/28 10:43:10;;;;;;;46.42;28.17;;;;;;;12.73;100.00;100485.00;5130023;27;20043;-84
2023/04/28 10:45:51;;;;;;;57.80;32.88;;;;;;;12.84;100.00;100494.13;5133860;27;20062;-85
2023/04/28 10:48:45;;;;;;;40.33;24.52;;;;;;;12.68;100.00;100465.16;5135462;27;20100;-84
2023/04/28 10:51:15;;;;;;;51.15;27.27;;;;;;;12.79;100.00;100490.88;5121070;27;20051;-84
2023/04/28 10:53:44;;;;;;;33.20;19.73;;;;;;;12.94;100.00;100492.69;5132974;27;20050;-84
2023/04/28 10:56:24;;;;;;;35.50;21.10;;;;;;;12.39;100.00;100440.31;5134569;27;20047;-84
2023/04/28 10:58:54;;;;;;;31.42;19.55;;;;;;;12.42;100.00;100479.56;5120729;27;20418;-83
2023/04/28 11:01:23;;;;;;;35.28;18.45;;;;;;;12.77;100.00;100490.94;5129543;27;20058;-83
2023/04/28 11:03:59;;;;;;;35.97;22.33;;;;;;;12.71;100.00;100486.84;5126465;27;20050;-84
2023/04/28 11:06:39;;;;;;;40.95;22.65;;;;;;;12.26;100.00;100448.81;5134045;27;20051;-83
2023/04/28 11:09:12;;;;;;;41.45;24.75;;;;;;;12.33;100.00;100501.88;5134364;27;20057;-84
2023/04/28 11:12:04;;;;;;;40.95;23.27;;;;;;;12.43;100.00;100497.00;5133074;27;20457;-84
2023/04/28 11:14:35;;;;;;;38.47;20.50;;;;;;;12.53;100.00;100480.72;5134675;27;20039;-84